createdAt,value
2017-05-14T00:01:28.000Z,1009.634
2017-05-14T00:11:28.000Z,1009.646
2017-05-14T00:31:29.000Z,1009.78
2017-05-14T00:51:28.000Z,1009.812
2017-05-14T01:01:28.000Z,1009.895
2017-05-14T01:11:28.000Z,1009.913
2017-05-14T01:31:28.000Z,1010.038
2017-05-14T01:51:28.000Z,1010.184
2017-05-14T02:01:28.000Z,1010.283
2017-05-14T02:11:28.000Z,1010.304
2017-05-14T02:31:28.000Z,1010.49
2017-05-14T02:51:28.000Z,1010.448
2017-05-14T03:01:28.000Z,1010.453
2017-05-14T03:11:28.000Z,1010.501
2017-05-14T03:31:28.000Z,1010.674
2017-05-14T03:51:28.000Z,1010.851
2017-05-14T04:11:28.000Z,1011.013
2017-05-14T04:21:28.000Z,1011.007
2017-05-14T04:31:28.000Z,1011.051
2017-05-14T04:51:28.000Z,1011.139
2017-05-14T05:11:28.000Z,1011.28
2017-05-14T05:21:28.000Z,1011.354
2017-05-14T05:31:28.000Z,1011.354
2017-05-14T05:51:28.000Z,1011.463
2017-05-14T06:11:28.000Z,1011.617
2017-05-14T06:21:28.000Z,1011.773
2017-05-14T06:31:29.000Z,1011.804
2017-05-14T06:51:29.000Z,1011.971
2017-05-14T07:11:29.000Z,1012.05
2017-05-14T07:21:29.000Z,1012.15
2017-05-14T07:31:29.000Z,1012.222
2017-05-14T07:51:29.000Z,1012.345
2017-05-14T08:11:29.000Z,1012.502
2017-05-14T08:21:29.000Z,1012.512
2017-05-14T08:31:29.000Z,1012.577
2017-05-14T08:51:29.000Z,1012.571
2017-05-14T09:11:29.000Z,1012.704
2017-05-14T09:21:29.000Z,1012.679
2017-05-14T09:31:29.000Z,1012.677
2017-05-14T09:51:29.000Z,1012.718
2017-05-14T10:11:29.000Z,1012.629
2017-05-14T10:21:29.000Z,1012.63
2017-05-14T10:31:30.000Z,1012.705
2017-05-14T10:51:29.000Z,1012.703
2017-05-14T11:11:29.000Z,1012.784
2017-05-14T11:21:30.000Z,1012.799
2017-05-14T11:31:32.000Z,1012.795
2017-05-14T11:51:29.000Z,1012.645
2017-05-14T12:11:29.000Z,1012.948
2017-05-14T12:21:29.000Z,1013.146
2017-05-14T12:31:29.000Z,1013.519
2017-05-14T12:51:29.000Z,1013.193
2017-05-14T13:11:29.000Z,1013.108
2017-05-14T13:21:29.000Z,1013.016
2017-05-14T13:31:29.000Z,1013.053
2017-05-14T13:51:29.000Z,1013.032
2017-05-14T14:11:29.000Z,1013.033
2017-05-14T14:21:29.000Z,1012.9
2017-05-14T14:31:29.000Z,1012.85
2017-05-14T14:51:30.000Z,1012.772
2017-05-14T15:11:30.000Z,1012.854
2017-05-14T15:31:30.000Z,1012.866
2017-05-14T15:41:31.000Z,1012.996
2017-05-14T15:51:30.000Z,1013.033
2017-05-14T16:11:30.000Z,1013.129
2017-05-14T16:31:30.000Z,1013.423
2017-05-14T16:41:30.000Z,1013.633
2017-05-14T16:51:30.000Z,1013.976
2017-05-14T17:11:30.000Z,1014.08
2017-05-14T17:31:30.000Z,1014.352
2017-05-14T17:41:30.000Z,1014.437
2017-05-14T17:51:30.000Z,1014.608
2017-05-14T18:11:30.000Z,1014.637
2017-05-14T18:31:30.000Z,1014.935
2017-05-14T18:41:30.000Z,1015.198
2017-05-14T18:51:30.000Z,1015.341
2017-05-14T19:11:30.000Z,1015.864
2017-05-14T19:31:30.000Z,1015.992
2017-05-14T19:41:30.000Z,1016.124
2017-05-14T19:51:30.000Z,1016.312
2017-05-14T20:11:30.000Z,1016.526
2017-05-14T20:31:30.000Z,1016.608
2017-05-14T20:41:30.000Z,1016.734
2017-05-14T20:51:30.000Z,1016.877
2017-05-14T21:11:30.000Z,1016.938
2017-05-14T21:31:30.000Z,1017.053
2017-05-14T21:41:30.000Z,1017.123
2017-05-14T21:51:30.000Z,1017.205
2017-05-14T22:11:30.000Z,1017.295
2017-05-14T22:31:30.000Z,1017.726
2017-05-14T22:41:31.000Z,1017.859
2017-05-14T22:51:30.000Z,1018.006
2017-05-14T23:11:31.000Z,1018.184
2017-05-14T23:31:31.000Z,1018.359
2017-05-14T23:41:31.000Z,1018.343
2017-05-14T23:51:31.000Z,1018.401
